Timeline UpdatesTrip UpdatesNews PostsPvt PostsTravel TipsAdmin PostsConv PostsFollowed PostsChat RequestsBlog PostsPNR Posts

Disclaimer
Search
 
 
Tue Jul 29, 2014 16:15:38 ISTHomeTrainsΣChainsAtlasPNRForumGalleryNewsFAQTripsMembersLoginFeedback
No Recent News for this Train
Other Trains in the News **new
Latest...
Will be controlled for 85 minutes between Mughalsarai-Gaya on 3,7,10 July 2014 #1152832
Wed Jul 02, 2014 (03:39PM)
⇐ Return Journey: Train# 53521

53522/Varanasi-Asansol Passenger (UnReserved)

Sep 11 2013 (1:38PM)
Change Departure Station:
Change Arrival Station:
Post a Train Travel TipPost a Train Travel Tip **new
Post a Comment/Question/Picture/VideoPost a Comment/Question/Picture/Video
Pantry/Catering
✕ NO Pantry Car
✕ NO Catering
RSA - Rake Sharing
Rake/Coach Composition
Loco
WAG 7 LDH
News    PNR    Forum    Time-Table    Availability    Fare Chart    Map    Arr/Dep History    Trips    Gallery    ΣChains    X/O    Timeline    
Travel Time: 16h 35m    78 halts    Distance: 483 km    Avg Speed: 29 km/hr
Type: Passenger
Zone: ER/Eastern
Departs @ 04:25 (Avg 20m late)
Platform# 1
SMTWTFS
Varanasi Junction/BSB 
Arrives @ 21:00 (Avg 1h 8m late)
Platform# ???
SMTWTFS
Asansol Junction/ASN 

78 halts. 87 intermediate Stations between Varanasi Junction and Asansol Junction

Show ALL intermediate Stations  Show Old Time-Table

#CodeStation NameX/OArrivesAvgDepartsAvgHaltPFDay#KmSpeedElevZoneAddress
1BSB»Varanasi Junction (9)»  -04:25+20110.02782mNRVaranasi 221002, Uttar Pradesh
2KEIKashi (3)  04:37+3304:38+361m--15.32485mNRVaranasi, Uttar Pradesh
3VYNVyasnagar  04:51+3804:52+391m--110.61281mNRNational Highway 2, Uttar Pradesh
4MGSMughal Sarai Junction (8)X  05:20+2705:30+3110m--116.35383mECRMughalsarai 232101, Uttar Pradesh
5GAQGanj Khawaja  05:40+1:0805:42+1:092m--125.16479mECRChandauli Mjhwr, Uttar Pradesh
6CDMRChandauli MajhwarX  05:50+1:0405:52+1:102m--133.77280mECRNational Highway 2, Uttar Pradesh
7SYJSaidrajaX  05:59+1:1306:01+1:192m--142.17080mECRSaiyedraja, Uttar Pradesh
8KMSKaramnasa  06:08+1:2006:10+1:232m--150.36278mECRNational Highway 2, Uttar Pradesh
9DCXDhanaichhaXO  06:16+1:2506:18+1:252m--156.54675mECRNational Highway 2, Bihar
10DGODurgautiX  06:25+1:1406:27+1:182m--161.92476mECRDistt Kaimur, Bihar
11BBUBhabua Road (4)  06:49+1:0906:51+1:112m--170.84780mECR06187-222222, Bihar
12MTGEMuthani  06:58+1:1407:00+1:182m--176.35983mECRNational Highway 2, Bihar
13PSEPusauliX  07:08+1:1907:10+1:202m--184.24586mECRDistt: Rohtas, Bihar
14KTQKudra (2)X  07:22+1:1807:24+1:222m--193.25992mECRKudra, Bihar
15KVDKhurmabad RoadX  07:31+1:2407:33+1:242m--1100.14193mECRKhurmabad, Bihar
16SSGShiu Sagar RoadXO  07:40+1:2507:42+1:272m--1104.94299mECRShiu Sagar Rd, Bihar
17KMGEKumahuXO  07:50+1:2807:52+1:342m--1110.536101mECRKamahu, Bihar
18SSMSasaram Junction (4)XO  08:05+1:1908:07+1:252m--1118.465111mECR06184-222051, Bihar
19KWDKarwandia  08:13+1:4408:15+1:472m--1124.957113mECRKarwandiya, Bihar
20PHEPahaleja HaltO  08:22+1:4908:24+1:492m--1131.624112mECRPahaleja, Bihar
21DOSDehri On Sone (6)O  08:35+1:3708:40+1:485m--1136.143114mECRRohtas(06184-253154), Bihar
22SEBSon Nagar Junction (4)  08:48+2:0808:50+2:132m21141.850110mECRBarun, Bihar
23CPBHChiraila  08:57+2:1608:59+2:162m21147.643104mECRBarun, Bihar
24AUBRAnugraha Narayan Road (4)X  09:06+2:0009:08+2:032m31152.745104mECR06186-285271, Bihar
25PESPhesar  09:20+2:2009:22+2:252m21161.639104mECRpheshar, Bihar
26BHKHBaghoi Kusa  09:29+2:2509:31+2:252m--1166.1998mECRbel Rd, Bihar
27JHNJakhim  10:17+1:5010:19+1:582m--1172.73893mECRbel Rd, Bihar
28DORDDeo Road  10:25+1:5810:27+1:582m--1176.424102mECRMaluk Bigha, Bihar
29RFJRafiGanj (4)X  10:45+1:4210:47+1:482m--1183.569102mECRRafiganj, Bihar
30IMGEIsmailpur  10:55+1:5810:57+1:582m--1192.859114mECRState Highway 69, Bihar
31GRRUGuraru  11:04+1:5911:06+2:042m21199.651114mECRGuraru, Bihar
32PRYParaiyaO  11:13+2:0211:15+2:042m--1205.633111mECRparaiya station Rd, Bihar
33KSTAKastha  11:28+2:0511:30+2:052m--1212.736113mECRGaya, Bihar
34GAYAGaya Junction (9)  11:44+1:2711:54+1:3010m21221.117117mECR0631-2220283, Bihar
35MPOManpur Junction  12:13+2:1012:15+2:132m--1226.4-113mECRGaya, Bihar
36BNFBandhuaX  12:17+2:2612:27+2:2010m--1233.665124mECRState Highway 70, Bihar
37TKNTankuppa  12:34+2:2212:36+2:232m--1241.252127mECRState Highway 70, Bihar
38BNSLBansinala Halt  12:43+2:2112:44+2:221m--1247.253135mECRBansinala, Bihar
39PRPPaharpurX  12:51+2:2112:52+2:221m--1253.554150mECRGaya, Bihar
40GAPGurpa  13:05+2:2113:06+2:281m--1265.129192mECRLodhwe, Bihar
41YGMYadugram Block Hut  13:13+2:2813:14+2:281m--1268.527210mECRYadugram Block Hut, Jharkhand
42NGYNath Ganj  13:28+2:3013:29+2:301m--1274.746284mECRMurli, Bihar
43DLWDilwaX  13:37+2:2913:38+2:321m--1280.930346mECRNational Highway 31, Bihar
44LBZLalbag Block Hut  13:47+2:3113:48+2:311m--1285.426389mECRState Highway 70, Bihar
45GJDGujhandiX  13:53+2:3113:54+2:321m--1287.550386mECRNational Highway 31, Jharkhand
46KQRKoderma Junction (7)  14:06+2:1014:07+2:131m--1297.528399mECR06534-222410 Koderma, Jharkhand
47LRBLarabad  14:17+2:3214:18+2:331m--1302.139393mECRJhumri Telaiya, Jharkhand
48HREHirodih  14:25+2:3214:26+2:361m--1306.752371mECRJhumri Telaiya, Jharkhand
49SMNDSarmatanr  14:35+2:3514:36+2:401m--1314.434351mECRKoderma, Jharkhand
50YDDYadudih  14:43+2:3914:44+2:391m--1318.455352mECRNational Highway 2, Jharkhand
51PSBParsabad (3)  14:50+2:4014:51+2:411m--1323.965346mECRNational Highway 2, Jharkhand
52DSMEDasaraX  14:57+2:4114:58+2:411m--1330.449342mECRSariya - Parsiya Road, Jharkhand
53CBHChaubeO  15:04+2:4215:06+2:422m--1335.314325mECRParsabad, Jharkhand
54KSHRKeshwari  15:27+2:2715:28+2:271m--1340.157313mECRMandramo, Jharkhand
55HZDHazaribagh Road (3)  15:34+2:1915:35+2:191m--1345.852330mECRHazaribagh, Jharkhand
56GRBHGarea Bihar  15:43-15:44-1m--1352.819315mECRSariya - Parsiya Rd, Jharkhand
57CCKChichaki  15:50+2:2915:51+2:301m--1354.715308mECRNational Highway 2, Jharkhand
58CDBChaudhribandhXO  16:10+2:2716:12+2:262m--1359.49314mECRMaipatoli, Jharkhand
59CEMEChegroXO  16:42+2:0216:43+2:021m--1363.739333mECRBeko, Jharkhand
60PNMEParasnath (5)  17:03+1:3417:08+1:315m--1376.765282mECRGiridih 06532-233419, Jharkhand
61NMGNimiaghat  17:15+1:4717:16+1:511m--1384.456268mECRNational Highway 2, Jharkhand
62BLMEBholldihX  17:22+1:5117:23+1:571m--1390.013241mECRGomoh, Jharkhand
63GMONetaji SC Bose Gomoh Junction (6)  17:45+1:4017:55+1:4010m--1394.852239mECRGomoh, Jharkhand
64MRQMatari  18:06+1:5918:07+2:011m--1404.253246mECRDhanbad, Jharkhand
65NPJENichitpur  18:13+2:0118:14+2:011m--1409.550224mECRKatras, Jharkhand
66TETTetulmari  18:21+1:5418:22+1:551m--1415.432225mECRTetulmari, Jharkhand
67BHNBhuli  18:32+1:5818:33+1:581m--1420.77230mECRKusunda, Jharkhand
68DHNDhanbad Junction (8)X  19:05+1:1919:15+1:1910m--1424.645235mECR2319801. Div. HQ ECR, Jharkhand
69DOKMDokra Halt (2)  19:22+1:4519:23+1:451m--1429.938211mECRDokra, Jharkhand
70PKAPradhankhunta Junction (3)X  19:29+1:4619:30+1:491m--1433.746202mECRDhanbad, Jharkhand
71CAMChhota Ambana (3)X  19:38+1:5419:39+1:541m--1439.890200mERDhanbad, Jharkhand
72KAOKalubathan (2)  19:45+1:5819:46+1:591m--1448.951195mERDhanbad, Jharkhand
73TNWThapar Nagar (2)X  19:51+2:0019:52+2:011m--1453.153144mERDhanbad, Jharkhand
74MMUMugma (3)  19:58+2:0619:59+2:071m--1458.456135mERNational Highway 2, Jharkhand
75KMMEKumardubi (2)X  20:04+2:0620:05+2:061m--1463.038135mERDhanbad - 828203(06540-222077), Jharkhand
76BRRBarakar (2)O  20:09+2:1020:10+2:111m--1465.649129mERDist. Bardhaman, West Bengal
77ULTKulti (3)X  20:14+1:5720:15+1:591m--1468.812148mERdist - bardhaman, West Bengal
78STNSitarampur Junction (5)X  20:40+1:3820:41+1:421m21474.037139mERG T Rd Before Asansol, West Bengal
79BCQBarachak Junction (4)  20:47+2:0620:48+2:061m--1477.725127mERdist - bardhaman, West Bengal
80ASN•Asansol Junction (7)•  21:00+1:08---1482.8-113mERDist - bardhaman, West Bengal
Scroll to Top
Scroll to Bottom